createdAt,value
2022-10-29T00:02:25.715Z,17.31
2022-10-29T00:04:57.933Z,17.35
2022-10-29T00:07:27.544Z,17.28
2022-10-29T00:09:57.121Z,17.28
2022-10-29T00:12:26.787Z,17.26
2022-10-29T00:14:56.332Z,17.27
2022-10-29T00:17:25.925Z,17.22
2022-10-29T00:19:58.131Z,17.16
2022-10-29T00:22:27.676Z,17.12
2022-10-29T00:24:57.276Z,17.11
2022-10-29T00:27:26.895Z,17.12
2022-10-29T00:29:56.977Z,17.05
2022-10-29T00:32:26.519Z,17.05
2022-10-29T00:34:58.655Z,17.03
2022-10-29T00:37:28.182Z,17.04
2022-10-29T00:39:57.689Z,17.02
2022-10-29T00:42:27.212Z,17.00
2022-10-29T00:44:56.789Z,16.96
2022-10-29T00:47:27.718Z,16.95
2022-10-29T00:50:02.844Z,16.91
2022-10-29T00:52:33.980Z,16.90
2022-10-29T00:55:06.188Z,16.85
2022-10-29T00:57:39.721Z,16.84
2022-10-29T01:02:57.516Z,16.80
2022-10-29T01:16:28.063Z,16.72
2022-10-29T01:19:04.523Z,16.71
2022-10-29T01:21:45.406Z,16.70
2022-10-29T01:24:35.052Z,16.65
2022-10-29T01:27:43.105Z,16.62
2022-10-29T01:30:17.094Z,16.59
2022-10-29T01:32:55.840Z,16.57
2022-10-29T01:35:29.182Z,16.54
2022-10-29T01:38:08.390Z,16.52
2022-10-29T01:40:41.307Z,16.46
2022-10-29T01:43:16.048Z,16.42
2022-10-29T01:45:48.263Z,16.40
2022-10-29T01:48:28.979Z,16.41
2022-10-29T01:51:05.542Z,16.38
2022-10-29T01:53:37.973Z,16.42
2022-10-29T01:56:07.967Z,16.36
2022-10-29T01:58:42.019Z,16.33
2022-10-29T02:01:22.087Z,16.27
2022-10-29T02:03:59.918Z,16.30
2022-10-29T02:06:38.244Z,16.32
2022-10-29T02:09:12.565Z,16.23
2022-10-29T02:11:47.638Z,16.25
2022-10-29T02:14:20.629Z,16.22
2022-10-29T02:16:50.703Z,16.22
2022-10-29T02:19:22.923Z,16.10
2022-10-29T02:21:53.477Z,16.04
2022-10-29T02:24:24.700Z,16.01
2022-10-29T02:26:54.472Z,16.00
2022-10-29T02:29:24.236Z,15.98
2022-10-29T02:31:53.784Z,15.91
2022-10-29T02:34:25.923Z,15.89
2022-10-29T02:36:55.469Z,15.85
2022-10-29T02:39:25.087Z,15.85
2022-10-29T02:41:54.619Z,15.88
2022-10-29T02:44:24.157Z,15.82
2022-10-29T02:46:53.658Z,15.78
2022-10-29T02:49:25.757Z,15.75
2022-10-29T02:51:55.297Z,15.70
2022-10-29T02:54:24.821Z,15.69
2022-10-29T02:56:54.441Z,15.64
2022-10-29T02:59:24.012Z,15.62
2022-10-29T03:01:53.651Z,15.57
2022-10-29T03:04:26.114Z,15.55
2022-10-29T03:06:55.713Z,15.52
2022-10-29T03:09:25.504Z,15.48
2022-10-29T03:11:55.061Z,15.42
2022-10-29T03:14:24.589Z,15.37
2022-10-29T03:16:54.239Z,15.37
2022-10-29T03:19:30.252Z,15.36
2022-10-29T03:21:59.823Z,15.34
2022-10-29T03:24:29.363Z,15.34
2022-10-29T03:26:58.891Z,15.33
2022-10-29T03:29:28.437Z,15.29
2022-10-29T03:31:57.962Z,15.31
2022-10-29T03:34:30.117Z,15.35
2022-10-29T03:36:59.665Z,15.25
2022-10-29T03:39:29.193Z,15.16
2022-10-29T03:41:58.737Z,15.18
2022-10-29T03:44:28.245Z,15.16
2022-10-29T03:46:57.905Z,15.16
2022-10-29T03:49:29.998Z,15.15
2022-10-29T03:51:59.542Z,15.13
2022-10-29T03:54:29.062Z,15.11
2022-10-29T03:56:58.638Z,15.17
2022-10-29T03:59:28.191Z,15.10
2022-10-29T04:01:57.853Z,15.10
2022-10-29T04:04:30.235Z,15.09
2022-10-29T04:06:59.821Z,15.05
2022-10-29T04:09:29.399Z,15.04
2022-10-29T04:11:58.980Z,15.03
2022-10-29T04:14:28.524Z,15.03
2022-10-29T04:16:58.152Z,15.01
2022-10-29T04:19:30.269Z,14.97
2022-10-29T04:27:01.703Z,14.87
2022-10-29T04:28:41.414Z,14.83
2022-10-29T04:30:28.521Z,14.74
2022-10-29T04:33:01.509Z,14.73
2022-10-29T04:35:33.649Z,14.69
2022-10-29T04:38:03.178Z,14.71
2022-10-29T04:40:32.685Z,14.65
2022-10-29T04:43:02.204Z,14.64
2022-10-29T04:45:31.846Z,14.64
2022-10-29T04:48:02.517Z,14.56
2022-10-29T04:50:35.239Z,14.57
2022-10-29T04:53:05.881Z,14.59
2022-10-29T04:55:38.939Z,14.57
2022-10-29T04:58:08.712Z,14.58
2022-10-29T05:00:38.286Z,14.57
2022-10-29T05:03:07.862Z,14.55
2022-10-29T05:05:41.944Z,14.50
2022-10-29T05:08:15.327Z,14.47
2022-10-29T05:10:44.922Z,14.50
2022-10-29T05:13:15.236Z,14.53
2022-10-29T05:15:49.097Z,14.54
2022-10-29T05:18:21.608Z,14.63
2022-10-29T05:20:55.902Z,14.51
2022-10-29T05:23:25.636Z,14.52
2022-10-29T05:25:55.187Z,14.55
2022-10-29T05:28:25.955Z,14.50
2022-10-29T05:30:56.063Z,14.50
2022-10-29T05:33:26.875Z,14.51
2022-10-29T05:35:59.051Z,14.54
2022-10-29T05:38:28.576Z,14.49
2022-10-29T05:41:00.594Z,14.43
2022-10-29T05:43:30.179Z,14.43
2022-10-29T05:45:59.708Z,14.42
2022-10-29T05:48:29.241Z,14.42
2022-10-29T05:51:02.482Z,14.45
2022-10-29T05:53:32.038Z,14.47
2022-10-29T05:56:02.148Z,14.49
2022-10-29T05:58:31.952Z,14.48
2022-10-29T06:01:01.524Z,14.48
2022-10-29T06:03:31.246Z,14.47
2022-10-29T06:06:03.626Z,14.51
2022-10-29T06:08:33.288Z,14.51
2022-10-29T06:11:04.519Z,14.49
2022-10-29T06:13:34.163Z,14.51
2022-10-29T06:16:03.971Z,14.48
2022-10-29T06:18:33.518Z,14.56
2022-10-29T06:21:05.750Z,14.51
2022-10-29T06:23:35.266Z,14.51
2022-10-29T06:26:04.809Z,14.50
2022-10-29T06:28:35.075Z,14.53
2022-10-29T06:31:04.801Z,14.52
2022-10-29T06:33:34.381Z,14.52
2022-10-29T06:36:07.297Z,14.52
2022-10-29T06:38:36.796Z,14.58
2022-10-29T06:41:06.445Z,14.55
2022-10-29T06:43:36.032Z,14.54
2022-10-29T06:46:05.842Z,14.56
2022-10-29T06:48:35.421Z,14.55
2022-10-29T06:51:07.963Z,14.59
2022-10-29T06:53:37.823Z,14.57
2022-10-29T06:56:07.743Z,14.65
2022-10-29T06:58:37.338Z,14.71
2022-10-29T07:01:07.117Z,14.74
2022-10-29T07:03:36.752Z,14.72
2022-10-29T07:06:09.888Z,14.69
2022-10-29T07:08:39.682Z,14.71
2022-10-29T07:11:09.291Z,14.67
2022-10-29T07:13:39.052Z,14.73
2022-10-29T07:16:09.668Z,14.82
2022-10-29T07:18:39.317Z,14.84
2022-10-29T07:21:12.743Z,14.85
2022-10-29T07:23:42.385Z,14.87
2022-10-29T07:26:11.985Z,14.88
2022-10-29T07:28:41.538Z,14.92
2022-10-29T07:31:11.114Z,14.97
2022-10-29T07:33:40.687Z,14.96
2022-10-29T07:36:13.072Z,14.95
2022-10-29T07:38:42.615Z,14.99
2022-10-29T07:41:12.226Z,15.06
2022-10-29T07:43:41.798Z,15.10
2022-10-29T07:46:11.405Z,15.12
2022-10-29T07:48:40.962Z,15.16
2022-10-29T07:51:13.334Z,15.20
2022-10-29T07:53:42.881Z,15.28
2022-10-29T07:56:12.462Z,15.30
2022-10-29T07:58:42.124Z,15.38
2022-10-29T08:01:11.801Z,15.39
2022-10-29T08:03:41.536Z,15.43
2022-10-29T08:06:13.896Z,15.51
2022-10-29T08:08:43.597Z,15.52
2022-10-29T08:11:13.316Z,15.58
2022-10-29T08:13:42.927Z,15.66
2022-10-29T08:16:12.516Z,15.70
2022-10-29T08:18:42.084Z,15.75
2022-10-29T08:21:14.327Z,15.90
2022-10-29T08:23:43.910Z,15.94
2022-10-29T08:26:13.535Z,16.07
2022-10-29T08:28:43.127Z,16.25
2022-10-29T08:31:12.921Z,16.40
2022-10-29T08:33:42.464Z,16.59
2022-10-29T08:36:14.899Z,16.72
2022-10-29T08:38:44.571Z,16.87
2022-10-29T08:41:32.941Z,17.04
2022-10-29T08:44:14.419Z,17.05
2022-10-29T08:46:47.265Z,17.14
2022-10-29T08:49:20.702Z,17.27
2022-10-29T08:51:59.482Z,17.39
2022-10-29T08:54:32.574Z,17.52
2022-10-29T08:57:05.474Z,17.65
2022-10-29T08:59:38.871Z,17.83
2022-10-29T09:02:13.829Z,17.88
2022-10-29T09:04:43.487Z,18.02
2022-10-29T09:07:28.762Z,18.18
2022-10-29T09:10:02.829Z,18.32
2022-10-29T09:12:51.364Z,18.44
2022-10-29T09:15:41.362Z,18.63
2022-10-29T09:18:31.009Z,18.76
2022-10-29T09:21:06.140Z,18.81
2022-10-29T09:23:53.469Z,18.90
2022-10-29T09:26:28.467Z,18.98
2022-10-29T09:29:09.127Z,19.04
2022-10-29T09:31:43.276Z,19.12
2022-10-29T09:34:18.149Z,19.13
2022-10-29T09:36:48.494Z,19.24
2022-10-29T09:39:33.791Z,19.24
2022-10-29T09:42:04.597Z,19.29
2022-10-29T09:44:40.728Z,19.34
2022-10-29T09:47:16.103Z,19.43
2022-10-29T09:49:55.431Z,19.51
2022-10-29T09:52:26.552Z,19.61
2022-10-29T09:54:58.810Z,19.64
2022-10-29T09:57:31.298Z,19.70
2022-10-29T10:00:02.781Z,19.69
2022-10-29T10:02:46.245Z,19.71
2022-10-29T10:05:18.713Z,19.73
2022-10-29T10:08:07.608Z,19.84
2022-10-29T10:10:42.303Z,19.81
2022-10-29T10:13:17.824Z,19.90
2022-10-29T10:15:53.906Z,19.96
2022-10-29T10:18:25.411Z,20.04
2022-10-29T10:21:07.525Z,20.11
2022-10-29T10:23:45.878Z,20.21
2022-10-29T10:26:39.325Z,20.26
2022-10-29T10:29:13.728Z,20.31
2022-10-29T10:31:43.706Z,20.36
2022-10-29T10:34:19.033Z,20.49
2022-10-29T10:36:51.716Z,20.51
2022-10-29T10:39:25.671Z,20.65
2022-10-29T10:41:58.828Z,20.78
2022-10-29T10:44:29.773Z,20.93
2022-10-29T10:47:02.348Z,21.04
2022-10-29T10:49:37.001Z,21.07
2022-10-29T10:52:08.697Z,21.10
2022-10-29T10:54:41.975Z,21.10
2022-10-29T10:57:25.205Z,21.07
2022-10-29T11:00:02.915Z,21.08
2022-10-29T11:02:42.505Z,21.15
2022-10-29T11:05:19.752Z,21.28
2022-10-29T11:10:23.568Z,21.33
2022-10-29T11:12:58.528Z,21.35
2022-10-29T11:15:36.080Z,21.32
2022-10-29T11:18:09.600Z,21.33
2022-10-29T11:20:40.088Z,21.41
2022-10-29T11:23:24.680Z,21.44
2022-10-29T11:25:58.040Z,21.46
2022-10-29T11:28:34.897Z,21.56
2022-10-29T11:31:14.650Z,21.58
2022-10-29T11:33:49.052Z,21.63
2022-10-29T11:36:22.729Z,21.69
2022-10-29T11:38:55.113Z,21.72
2022-10-29T11:41:29.257Z,21.73
2022-10-29T11:44:01.627Z,21.75
2022-10-29T11:46:41.969Z,21.84
2022-10-29T11:49:21.930Z,21.82
2022-10-29T11:51:58.540Z,21.84
2022-10-29T11:54:40.547Z,21.78
2022-10-29T11:57:16.709Z,21.83
2022-10-29T12:00:05.314Z,21.83
2022-10-29T12:03:04.932Z,21.91
2022-10-29T12:05:39.780Z,21.95
2022-10-29T12:08:24.331Z,21.98
2022-10-29T12:10:57.570Z,22.00
2022-10-29T12:13:42.349Z,22.01
2022-10-29T12:16:26.606Z,21.99
2022-10-29T12:19:01.157Z,22.01
2022-10-29T12:21:36.531Z,22.03
2022-10-29T12:24:17.573Z,22.10
2022-10-29T12:26:49.200Z,22.13
2022-10-29T12:29:23.944Z,22.20
2022-10-29T12:32:00.874Z,22.25
2022-10-29T12:34:34.745Z,22.30
2022-10-29T12:37:10.817Z,22.32
2022-10-29T12:39:44.011Z,22.30
2022-10-29T12:42:18.610Z,22.36
2022-10-29T12:44:55.208Z,22.38
2022-10-29T12:47:33.814Z,22.42
2022-10-29T12:50:08.948Z,22.43
2022-10-29T12:52:44.366Z,22.53
2022-10-29T12:55:16.135Z,22.59
2022-10-29T12:57:45.715Z,22.67
2022-10-29T13:00:45.131Z,22.80
2022-10-29T13:03:52.306Z,22.82
2022-10-29T13:06:50.082Z,22.85
2022-10-29T13:09:22.421Z,22.80
2022-10-29T13:11:53.831Z,22.78
2022-10-29T13:14:27.079Z,22.72
2022-10-29T13:16:57.398Z,22.70
2022-10-29T13:19:46.795Z,22.67
2022-10-29T13:22:56.361Z,22.68
2022-10-29T13:25:53.354Z,22.67
2022-10-29T13:28:53.866Z,22.65
2022-10-29T13:31:53.182Z,22.68
2022-10-29T13:34:58.857Z,22.65
2022-10-29T13:37:56.647Z,22.62
2022-10-29T13:40:46.147Z,22.63
2022-10-29T13:43:20.599Z,22.64
2022-10-29T13:45:53.596Z,22.66
2022-10-29T13:48:28.508Z,22.64
2022-10-29T13:51:01.650Z,22.62
2022-10-29T13:53:38.423Z,22.60
2022-10-29T13:56:12.064Z,22.63
2022-10-29T13:58:43.913Z,22.63
2022-10-29T14:01:18.185Z,22.62
2022-10-29T14:03:55.834Z,22.63
2022-10-29T14:06:30.434Z,22.63
2022-10-29T14:09:07.082Z,22.64
2022-10-29T14:11:42.500Z,22.64
2022-10-29T14:14:24.412Z,22.70
2022-10-29T14:17:12.097Z,22.67
2022-10-29T14:19:47.249Z,22.68
2022-10-29T14:22:25.647Z,22.64
2022-10-29T14:24:55.195Z,22.64
2022-10-29T14:27:24.737Z,22.68
2022-10-29T14:29:55.633Z,22.63
2022-10-29T14:32:25.439Z,22.59
2022-10-29T14:34:55.181Z,22.56
2022-10-29T14:37:31.313Z,22.54
2022-10-29T14:40:02.818Z,22.51
2022-10-29T14:42:35.232Z,22.47
2022-10-29T14:45:08.316Z,22.39
2022-10-29T14:47:39.279Z,22.34
2022-10-29T14:50:17.410Z,22.26
2022-10-29T14:52:53.795Z,22.16
2022-10-29T14:55:26.645Z,22.09
2022-10-29T14:58:02.845Z,21.99
2022-10-29T15:00:33.613Z,21.94
2022-10-29T15:03:03.801Z,21.90
2022-10-29T15:05:36.097Z,21.83
2022-10-29T15:08:19.097Z,21.78
2022-10-29T15:10:50.814Z,21.76
2022-10-29T15:13:31.804Z,21.72
2022-10-29T15:16:03.271Z,21.64
2022-10-29T15:18:33.701Z,21.62
2022-10-29T15:21:03.361Z,21.64
2022-10-29T15:23:38.196Z,21.58
2022-10-29T15:26:09.886Z,21.47
2022-10-29T15:28:41.059Z,21.46
2022-10-29T15:31:24.718Z,21.48
2022-10-29T15:33:55.139Z,21.42
2022-10-29T15:36:25.082Z,21.36
2022-10-29T15:39:22.829Z,21.33
2022-10-29T15:41:53.246Z,21.26
2022-10-29T15:44:31.878Z,21.18
2022-10-29T15:47:03.125Z,21.16
2022-10-29T15:49:33.114Z,21.14
2022-10-29T15:52:03.165Z,21.14
2022-10-29T15:54:36.519Z,21.05
2022-10-29T15:57:06.990Z,21.05
2022-10-29T15:59:36.550Z,21.02
2022-10-29T16:02:13.132Z,21.02
2022-10-29T16:04:42.838Z,20.97
2022-10-29T16:07:15.219Z,20.94
2022-10-29T16:09:50.452Z,20.93
2022-10-29T16:12:20.276Z,20.93
2022-10-29T16:14:49.857Z,20.94
2022-10-29T16:17:21.642Z,20.92
2022-10-29T16:19:51.259Z,20.92
2022-10-29T16:22:26.035Z,20.84
2022-10-29T16:24:58.607Z,20.77
2022-10-29T16:27:28.201Z,20.74
2022-10-29T16:29:57.721Z,20.75
2022-10-29T16:32:27.408Z,20.75
2022-10-29T16:34:56.907Z,20.70
2022-10-29T16:37:26.438Z,20.67
2022-10-29T16:39:58.600Z,20.62
2022-10-29T16:42:33.003Z,20.61
2022-10-29T16:45:02.744Z,20.56
2022-10-29T16:47:32.385Z,20.49
2022-10-29T16:50:01.871Z,20.44
2022-10-29T16:52:32.836Z,20.42
2022-10-29T16:55:05.084Z,20.40
2022-10-29T16:57:34.610Z,20.42
2022-10-29T17:00:04.184Z,20.36
2022-10-29T17:02:33.796Z,20.37
2022-10-29T17:05:03.327Z,20.33
2022-10-29T17:07:32.948Z,20.33
2022-10-29T17:10:05.054Z,20.30
2022-10-29T17:12:34.676Z,20.29
2022-10-29T17:15:04.305Z,20.31
2022-10-29T17:17:34.245Z,20.32
2022-10-29T17:20:03.975Z,20.32
2022-10-29T17:22:33.556Z,20.37
2022-10-29T17:25:05.702Z,20.34
2022-10-29T17:27:35.265Z,20.27
2022-10-29T17:30:04.825Z,20.29
2022-10-29T17:32:34.447Z,20.33
2022-10-29T17:35:04.105Z,20.34
2022-10-29T17:37:33.850Z,20.36
2022-10-29T17:40:08.155Z,20.35
2022-10-29T17:42:38.065Z,20.38
2022-10-29T17:45:08.882Z,20.36
2022-10-29T17:50:28.679Z,20.33
2022-10-29T17:52:59.757Z,20.29
2022-10-29T17:55:32.018Z,20.21
2022-10-29T17:58:01.592Z,20.15
2022-10-29T18:00:31.379Z,19.99
2022-10-29T18:03:00.957Z,19.97
2022-10-29T18:05:30.518Z,19.95
2022-10-29T18:08:00.380Z,19.91
2022-10-29T18:10:34.426Z,19.88
2022-10-29T18:13:04.106Z,19.82
2022-10-29T18:15:33.681Z,19.87
2022-10-29T18:18:03.384Z,19.93
2022-10-29T18:20:32.970Z,19.98
2022-10-29T18:23:03.104Z,20.00
2022-10-29T18:25:35.383Z,19.98
2022-10-29T18:28:04.947Z,20.00
2022-10-29T18:30:34.490Z,20.02
2022-10-29T18:33:04.054Z,20.04
2022-10-29T18:35:33.613Z,20.02
2022-10-29T18:38:03.116Z,20.08
2022-10-29T18:40:35.183Z,19.96
2022-10-29T18:43:04.933Z,19.96
2022-10-29T18:45:34.458Z,19.96
2022-10-29T18:48:04.050Z,19.96
2022-10-29T18:50:34.581Z,19.97
2022-10-29T18:53:04.111Z,20.01
2022-10-29T18:55:36.572Z,20.02
2022-10-29T18:58:06.163Z,20.03
2022-10-29T19:00:35.706Z,20.07
2022-10-29T19:03:05.223Z,20.05
2022-10-29T19:05:37.579Z,20.07
2022-10-29T19:08:08.082Z,20.06
2022-10-29T19:10:42.959Z,20.09
2022-10-29T19:13:12.564Z,20.07
2022-10-29T19:15:42.120Z,20.09
2022-10-29T19:18:11.741Z,20.10
2022-10-29T19:20:41.383Z,20.05
2022-10-29T19:23:10.863Z,20.05
2022-10-29T19:25:44.509Z,20.08
2022-10-29T19:28:14.066Z,20.07
2022-10-29T19:30:43.629Z,20.08
2022-10-29T19:33:13.211Z,20.11
2022-10-29T19:35:42.745Z,20.14
2022-10-29T19:38:12.290Z,20.16
2022-10-29T19:40:44.443Z,20.24
2022-10-29T19:43:13.959Z,20.19
2022-10-29T19:45:43.489Z,20.26
2022-10-29T19:48:12.983Z,20.31
2022-10-29T19:50:42.551Z,20.27
2022-10-29T19:53:12.441Z,20.33
2022-10-29T19:55:44.815Z,20.36
2022-10-29T19:58:14.356Z,20.40
2022-10-29T20:00:44.042Z,20.43
2022-10-29T20:03:13.922Z,20.46
2022-10-29T20:05:44.071Z,20.36
2022-10-29T20:08:16.073Z,20.38
2022-10-29T20:10:56.711Z,20.30
2022-10-29T20:13:26.301Z,20.32
2022-10-29T20:15:56.113Z,20.34
2022-10-29T20:18:26.029Z,20.37
2022-10-29T20:20:57.147Z,20.38
2022-10-29T20:23:26.959Z,20.34
2022-10-29T20:25:59.114Z,20.31
2022-10-29T20:28:28.662Z,20.32
2022-10-29T20:31:12.872Z,20.30
2022-10-29T20:33:42.469Z,20.30
2022-10-29T20:36:12.457Z,20.31
2022-10-29T20:38:42.102Z,20.35
2022-10-29T20:41:14.265Z,20.36
2022-10-29T20:43:43.831Z,20.37
2022-10-29T20:46:13.586Z,20.40
2022-10-29T20:48:43.115Z,20.44
2022-10-29T20:51:13.512Z,20.41
2022-10-29T20:53:43.042Z,20.37
2022-10-29T20:56:16.527Z,20.34
2022-10-29T20:58:46.503Z,20.36
2022-10-29T21:01:17.620Z,20.35
2022-10-29T21:03:47.571Z,20.33
2022-10-29T21:06:17.686Z,20.29
2022-10-29T21:08:47.410Z,20.28
2022-10-29T21:11:20.961Z,20.29
2022-10-29T21:13:50.477Z,20.32
2022-10-29T21:16:21.887Z,20.29
2022-10-29T21:18:52.990Z,20.27
2022-10-29T21:21:22.890Z,20.30
2022-10-29T21:23:52.452Z,20.29
2022-10-29T21:26:27.386Z,20.27
2022-10-29T21:28:57.341Z,20.27
2022-10-29T21:31:27.167Z,20.25
2022-10-29T21:33:57.728Z,20.21
2022-10-29T21:36:27.476Z,20.26
2022-10-29T21:38:57.268Z,20.24
2022-10-29T21:41:29.391Z,20.26
2022-10-29T21:43:58.991Z,20.31
2022-10-29T21:46:28.509Z,20.33
2022-10-29T21:48:58.360Z,20.34
2022-10-29T21:51:28.035Z,20.30
2022-10-29T21:53:57.678Z,20.33
2022-10-29T21:56:29.849Z,20.32
2022-10-29T21:58:59.366Z,20.35
2022-10-29T22:01:28.951Z,20.35
2022-10-29T22:03:58.585Z,20.36
2022-10-29T22:06:28.413Z,20.35
2022-10-29T22:08:59.446Z,20.36
2022-10-29T22:11:31.767Z,20.35
2022-10-29T22:14:01.645Z,20.29
2022-10-29T22:16:31.206Z,20.32
2022-10-29T22:19:00.965Z,20.22
2022-10-29T22:21:32.103Z,20.23
2022-10-29T22:24:02.572Z,20.23
2022-10-29T22:26:34.918Z,20.25
2022-10-29T22:29:04.432Z,20.20
2022-10-29T22:31:33.990Z,20.22
2022-10-29T22:34:03.986Z,20.20
2022-10-29T22:36:34.202Z,20.13
2022-10-29T22:39:04.206Z,20.14
2022-10-29T22:41:36.375Z,20.09
2022-10-29T22:44:06.157Z,20.09
2022-10-29T22:46:35.674Z,20.06
2022-10-29T22:49:05.254Z,20.06
2022-10-29T22:51:36.131Z,20.03
2022-10-29T22:54:06.107Z,20.07
2022-10-29T22:56:40.725Z,20.05
2022-10-29T22:59:10.524Z,20.07
2022-10-29T23:01:44.302Z,19.98
2022-10-29T23:04:15.654Z,19.98
2022-10-29T23:06:47.685Z,19.95
2022-10-29T23:09:17.226Z,19.99
2022-10-29T23:11:49.401Z,19.96
2022-10-29T23:14:18.929Z,19.94
2022-10-29T23:16:48.450Z,19.95
2022-10-29T23:19:18.023Z,19.93
2022-10-29T23:21:47.627Z,19.94
2022-10-29T23:24:17.139Z,19.95
2022-10-29T23:26:49.264Z,19.95
2022-10-29T23:29:18.776Z,19.90
2022-10-29T23:31:48.285Z,19.81
2022-10-29T23:34:18.040Z,19.81
2022-10-29T23:36:47.669Z,19.83
2022-10-29T23:39:17.300Z,19.80
2022-10-29T23:41:49.459Z,19.79
2022-10-29T23:44:19.015Z,19.80
2022-10-29T23:46:48.626Z,19.78
2022-10-29T23:49:18.172Z,19.80
2022-10-29T23:51:47.733Z,19.77
2022-10-29T23:54:17.256Z,19.77
2022-10-29T23:56:49.427Z,19.80
2022-10-29T23:59:19.079Z,19.76
